Aérodrome :
LOGIN :

S'inscrire | Disclaimer

   EN    FR    IT 

 










Légende :    VFR   VFR Marginal   IFR   IFR Intensif   IFR Très Intensif
Visi : 
Plafond : 
>= 8 km
>= 3000ft
5 à 8 km
1000 à 3000 ft
1500m à 5 km
500 à 1000 ft
800 à 1500m
200 à 500 ft
< 800m
< 200 ft
Symboles :   Orages  Brouillard  Fortes neiges  Fortes précipitations  Vent > 20 kt
SIGMETs :   Divers  Orages  Givrage  Turbulence  Onde Orograph.  Cendres Volcan.







- Altitude de l'aérodrome : 1411 ft
- Code IATA : SZG


LOWS - Salzburg

DERNIER METAR :
  • 190550Z 16005KT 130V190 CAVOK M00/M05 Q1021 NOSIG

METARs EXPIRÉS :
  • 190520Z 16005KT CAVOK M00/M05 Q1020 NOSIG
  • 190450Z 16005KT CAVOK M03/M06 Q1020 NOSIG
  • 190420Z AUTO 17006KT 9999 NSC M03/M06 Q1020
  • 190350Z AUTO 14004KT 9999 NSC M02/M05 Q1020
  • 190320Z AUTO 15003KT 9999 NSC M01/M05 Q1020

TAF TAF LOWS
Valide du 19 à 06h jusqu'au 20 à 06h UTC


190515Z 1906/2006 15005KT CAVOK TX11/1914Z TNM02/1906Z
TEMPO 1911/1916 33006KT
BECMG 1918/1920 9999 FEW050 BKN060
Pas de NOTAMs connus pour ce terrain.



MET'MAP, la Météo Aéronautique d'un coup d'oeil ! - Copyright ORBIFLY Décembre 2007 - Disclaimer

ORBIFLY MET'MAP TEAM :

Programmation & Développement : Alexandra Zaïnal
Conception & Développement : Baudouin d'Aumeries
Co-Programmation & Développement : Marc-Olivier Méhu
Soutien technique & logistique : Manuel Goepfert

Contact : metmap@orbifly.com




SOURCES & CREDITS :

   NOAA